Regional Weather

 

KMKL - Jackson, TN, USA
Distance from station: WNW 50mi, 81km
Updated: Sun, May-16-2021 6:53pm CDT
Clear
Clear
 Wind from SSE
Wind: SSE 6 mph , 9 km/h
Temperature: 75°F , 24°C
Dew Point: 59°F , 15°C
Humidity: 57%
Barometer: 30.09 inHg , 1019 hPa
Clouds: Clear
Visibility: 10 miles , 16 km
2021/05/16 23:53 KMKL 162353Z AUTO 16005KT 10SM CLR 24/15 A3009 RMK AO2 SLP185 T02440150 10267 20244 56007 $
KMEM - Memphis, TN, USA
Distance from station: W 108mi, 173km
Updated: Sun, May-16-2021 6:54pm CDT
Mostly cloudy
Mostly cloudy
 Wind from S
Wind: S 10 mph , 17 km/h
Temperature: 79°F , 26°C
Dew Point: 55°F , 13°C
Humidity: 45%
Barometer: 30.05 inHg , 1017.6 hPa
Clouds: Mostly cloudy
Visibility: 10 miles , 16 km
Cloud details: Few Clouds 5000 ft
Mostly cloudy 25000 ft
2021/05/16 23:54 KMEM 162354Z 18009KT 10SM FEW050 BKN250 26/13 A3005 RMK AO2 SLP174 T02610133 10278 20256 58009 $
 
KBNA - Nashville, TN, USA
Distance from station: NE 97mi, 157km
Updated: Sun, May-16-2021 6:53pm CDT
Mostly cloudy
Mostly cloudy
 Wind from S
Wind: S 6 mph , 9 km/h
Temperature: 73°F , 23°C
Dew Point: 55°F , 13°C
Humidity: 53%
Barometer: 30.13 inHg , 1020.3 hPa
Clouds: Mostly cloudy
Visibility: 10 miles , 16 km
Cloud details: Few Clouds 6000 ft
Partly cloudy 12000 ft
Mostly cloudy 20000 ft
2021/05/16 23:53 KBNA 162353Z 19005KT 10SM FEW060 SCT120 BKN200 23/13 A3013 RMK AO2 SLP198 T02330128 10267 20233 56007
KCKV - Clarksville, TN, USA
Distance from station: NNE 99mi, 159km
Updated: Sun, May-16-2021 6:52pm CDT
Partly cloudy
Partly cloudy
 Wind from S
Wind: S 7 mph , 11 km/h
Temperature: 75°F , 24°C
Dew Point: 57°F , 14°C
Humidity: 54%
Barometer: 30.10 inHg , 1019.3 hPa
Clouds: Partly cloudy
Visibility: 10 miles , 16 km
Cloud details: Partly cloudy 6000 ft
2021/05/16 23:52 KCKV 162352Z AUTO 18006KT 10SM SCT060 24/14 A3010 RMK AO2 SLP189 T02390139 10256 20222 56005
 
KPAH - Paducah, KY, USA
Distance from station: NNW 128mi, 205km
Updated: Sun, May-16-2021 6:53pm CDT
Partly cloudy
Partly cloudy
 Wind from S
Wind: S 3 mph , 6 km/h
Temperature: 79°F , 26°C
Dew Point: 59°F , 15°C
Humidity: 51%
Barometer: 30.05 inHg , 1017.6 hPa
Clouds: Partly cloudy
Visibility: 10 miles , 16 km
Cloud details: Partly cloudy 5500 ft
2021/05/16 23:53 KPAH 162353Z 17003KT 10SM SCT055 26/15 A3005 RMK AO2 SLP174 T02560150 10278 20250 55005 $
KCHA - Chattanooga, TN, USA
Distance from station: E 165mi, 265km
Updated: Sun, May-16-2021 6:53pm CDT
Mostly cloudy
Mostly cloudy
 Wind from SE
Wind: SE 6 mph , 9 km/h
Temperature: 79°F , 26°C
Dew Point: 52°F , 11°C
Humidity: 39%
Barometer: 30.16 inHg , 1021.3 hPa
Clouds: Mostly cloudy
Visibility: 10 miles , 16 km
Cloud details: Mostly cloudy 7500 ft
Mostly cloudy 25000 ft
2021/05/16 23:53 KCHA 162353Z 14005KT 10SM BKN075 BKN250 26/11 A3016 RMK AO2 SLP207 T02560106 10267 20250 55002 $
 
KTYS - Knoxville, TN, USA
Distance from station: E 234mi, 377km
Updated: Sun, May-16-2021 6:53pm CDT
Mostly cloudy
Mostly cloudy
 Wind from varies
Wind: varies 6 mph , 9 km/h
Temperature: 72°F , 22°C
Dew Point: 57°F , 14°C
Humidity: 61%
Barometer: 30.17 inHg , 1021.7 hPa
Clouds: Mostly cloudy
Visibility: 10 miles , 16 km
Cloud details: Few Clouds 5000 ft
Mostly cloudy 15000 ft
Mostly cloudy 25000 ft
2021/05/16 23:53 KTYS 162353Z VRB05KT 10SM FEW050 BKN150 BKN250 22/14 A3017 RMK AO2 SLP209 T02220144 56006 $
KLIT - Little Rock, AR, USA
Distance from station: W 240mi, 386km
Updated: Sun, May-16-2021 6:53pm CDT
Overcast
Overcast
 Wind from S
Wind: S 6 mph , 9 km/h
Temperature: 75°F , 24°C
Dew Point: 57°F , 14°C
Humidity: 54%
Barometer: 30.01 inHg , 1016.3 hPa
Clouds: Overcast
Visibility: 10 miles , 16 km
Cloud details: Few Clouds 7000 ft
Partly cloudy 15000 ft
Overcast 25000 ft
2021/05/16 23:53 KLIT 162353Z 18005KT 10SM FEW070 SCT150 OVC250 24/14 A3001 RMK AO2 SLP162 T02440144 10278 20244 56006

Refresh Page for latest data.